createdAt,value
2022-12-11T00:02:25.290Z,97.05
2022-12-11T00:05:27.290Z,97.13
2022-12-11T00:08:29.200Z,97.33
2022-12-11T00:11:34.726Z,97.25
2022-12-11T00:14:37.677Z,97.31
2022-12-11T00:17:39.934Z,97.72
2022-12-11T00:20:42.039Z,96.96
2022-12-11T00:23:44.051Z,97.23
2022-12-11T00:26:46.234Z,97.74
2022-12-11T00:29:49.664Z,97.72
2022-12-11T00:32:54.804Z,97.75
2022-12-11T00:35:56.706Z,97.92
2022-12-11T00:38:58.980Z,97.84
2022-12-11T00:42:01.065Z,98.03
2022-12-11T00:45:03.299Z,97.60
2022-12-11T00:48:06.236Z,98.26
2022-12-11T00:51:08.982Z,97.85
2022-12-11T00:54:11.028Z,99.57
2022-12-11T00:57:12.998Z,99.71
2022-12-11T01:00:15.024Z,98.88
2022-12-11T01:03:17.723Z,99.25
2022-12-11T01:06:22.147Z,99.22
2022-12-11T01:09:43.051Z,99.87
2022-12-11T01:12:44.835Z,100.00
2022-12-11T01:15:47.190Z,97.96
2022-12-11T01:18:49.253Z,97.50
2022-12-11T01:21:50.973Z,96.67
2022-12-11T01:24:53.253Z,97.08
2022-12-11T01:27:56.261Z,96.21
2022-12-11T01:30:58.498Z,96.70
2022-12-11T01:34:00.968Z,96.88
2022-12-11T01:37:03.047Z,95.92
2022-12-11T01:40:06.592Z,95.88
2022-12-11T01:43:11.491Z,96.17
2022-12-11T01:46:13.674Z,96.04
2022-12-11T01:49:22.482Z,96.74
2022-12-11T01:52:24.535Z,96.88
2022-12-11T01:55:26.886Z,97.30
2022-12-11T01:58:39.270Z,97.72
2022-12-11T02:01:44.993Z,97.17
2022-12-11T02:04:50.084Z,97.33
2022-12-11T02:07:56.172Z,97.03
2022-12-11T02:11:12.093Z,97.59
2022-12-11T02:14:47.325Z,96.72
2022-12-11T02:18:08.916Z,96.57
2022-12-11T02:21:21.195Z,96.84
2022-12-11T02:24:51.101Z,97.40
2022-12-11T02:28:14.937Z,96.71
2022-12-11T02:31:26.820Z,96.88
2022-12-11T02:34:31.498Z,97.38
2022-12-11T02:37:35.931Z,97.80
2022-12-11T02:40:40.398Z,97.54
2022-12-11T02:43:45.850Z,97.67
2022-12-11T02:46:47.970Z,97.69
2022-12-11T02:49:50.871Z,97.68
2022-12-11T02:52:54.481Z,96.95
2022-12-11T02:56:10.267Z,97.15
2022-12-11T02:59:19.685Z,97.06
2022-12-11T03:02:21.810Z,96.30
2022-12-11T03:05:24.729Z,96.22
2022-12-11T03:08:26.997Z,96.86
2022-12-11T03:11:29.486Z,96.65
2022-12-11T03:14:31.415Z,97.11
2022-12-11T03:18:08.759Z,97.26
2022-12-11T03:21:20.859Z,97.61
2022-12-11T03:24:26.208Z,97.21
2022-12-11T03:27:39.814Z,97.47
2022-12-11T03:30:43.636Z,97.74
2022-12-11T03:33:48.113Z,97.01
2022-12-11T03:36:50.481Z,96.59
2022-12-11T03:39:59.231Z,97.04
2022-12-11T03:43:01.578Z,95.20
2022-12-11T03:46:03.590Z,96.11
2022-12-11T03:49:21.380Z,95.91
2022-12-11T03:52:23.718Z,95.81
2022-12-11T03:55:26.955Z,95.33
2022-12-11T03:58:29.093Z,95.45
2022-12-11T04:01:31.191Z,95.90
2022-12-11T04:04:33.083Z,95.96
2022-12-11T04:07:35.930Z,96.69
2022-12-11T04:10:37.730Z,97.30
2022-12-11T04:13:40.881Z,98.15
2022-12-11T04:16:42.739Z,98.72
2022-12-11T04:20:03.341Z,99.80
2022-12-11T04:23:34.075Z,100.00
2022-12-11T04:26:35.868Z,100.00
2022-12-11T04:29:37.795Z,100.00
2022-12-11T04:32:39.806Z,100.00
2022-12-11T04:35:41.597Z,100.00
2022-12-11T04:38:43.605Z,100.00
2022-12-11T04:41:45.435Z,100.00
2022-12-11T04:44:47.267Z,100.00
2022-12-11T04:47:49.447Z,100.00
2022-12-11T04:50:51.447Z,100.00
2022-12-11T04:53:53.609Z,100.00
2022-12-11T04:56:55.647Z,100.00
2022-12-11T04:59:57.967Z,100.00
2022-12-11T05:03:00.023Z,100.00
2022-12-11T05:06:02.339Z,100.00
2022-12-11T05:09:04.177Z,99.85
2022-12-11T05:12:06.453Z,99.36
2022-12-11T05:15:09.152Z,99.18
2022-12-11T05:18:11.989Z,99.11
2022-12-11T05:21:14.950Z,98.09
2022-12-11T05:24:16.845Z,97.08
2022-12-11T05:27:19.053Z,96.82
2022-12-11T05:30:21.157Z,96.05
2022-12-11T05:33:22.978Z,96.31
2022-12-11T05:36:30.418Z,95.50
2022-12-11T05:39:32.669Z,95.34
2022-12-11T05:42:35.219Z,94.38
2022-12-11T05:45:37.126Z,93.90
2022-12-11T05:48:40.271Z,94.37
2022-12-11T05:51:43.454Z,93.09
2022-12-11T05:54:45.422Z,93.49
2022-12-11T05:57:47.460Z,92.36
2022-12-11T06:00:49.617Z,92.47
2022-12-11T06:03:52.170Z,92.62
2022-12-11T06:06:55.176Z,92.49
2022-12-11T06:09:57.190Z,92.41
2022-12-11T06:13:01.924Z,92.26
2022-12-11T06:16:06.601Z,93.30
2022-12-11T06:19:17.657Z,93.21
2022-12-11T06:22:23.229Z,92.09
2022-12-11T06:25:25.501Z,91.88
2022-12-11T06:28:27.306Z,92.63
2022-12-11T06:31:29.453Z,92.65
2022-12-11T06:34:31.386Z,93.82
2022-12-11T06:37:35.924Z,93.69
2022-12-11T06:40:38.614Z,94.30
2022-12-11T06:43:43.108Z,94.76
2022-12-11T06:46:45.864Z,94.70
2022-12-11T06:49:48.403Z,95.04
2022-12-11T06:52:50.894Z,95.16
2022-12-11T06:55:56.271Z,94.46
2022-12-11T06:59:02.854Z,94.19
2022-12-11T07:02:08.069Z,94.98
2022-12-11T07:05:10.649Z,94.68
2022-12-11T07:08:13.018Z,93.67
2022-12-11T07:11:17.067Z,93.83
2022-12-11T07:14:20.597Z,93.14
2022-12-11T07:17:23.202Z,92.88
2022-12-11T07:20:25.838Z,92.28
2022-12-11T07:23:29.016Z,92.49
2022-12-11T07:26:31.405Z,92.51
2022-12-11T07:29:33.624Z,92.44
2022-12-11T07:32:36.248Z,91.85
2022-12-11T07:35:38.372Z,90.95
2022-12-11T07:38:41.244Z,90.99
2022-12-11T07:41:43.484Z,90.13
2022-12-11T07:44:46.654Z,90.51
2022-12-11T07:47:48.949Z,89.21
2022-12-11T07:50:51.671Z,89.15
2022-12-11T07:53:56.807Z,87.94
2022-12-11T07:56:58.723Z,87.75
2022-12-11T08:00:00.916Z,87.91
2022-12-11T08:03:03.189Z,88.01
2022-12-11T08:06:05.737Z,88.20
2022-12-11T08:09:10.050Z,87.88
2022-12-11T08:12:13.918Z,87.28
2022-12-11T08:15:16.538Z,87.41
2022-12-11T08:18:18.466Z,86.92
2022-12-11T08:21:21.532Z,86.95
2022-12-11T08:24:23.626Z,87.13
2022-12-11T08:27:26.998Z,86.82
2022-12-11T08:30:30.687Z,87.80
2022-12-11T08:33:32.654Z,86.46
2022-12-11T08:36:34.823Z,86.85
2022-12-11T08:39:37.271Z,86.27
2022-12-11T08:42:39.350Z,85.36
2022-12-11T08:45:42.175Z,84.84
2022-12-11T08:48:45.658Z,84.95
2022-12-11T08:51:47.883Z,85.15
2022-12-11T08:54:50.074Z,86.55
2022-12-11T08:57:51.848Z,86.22
2022-12-11T09:00:53.968Z,85.40
2022-12-11T09:03:56.949Z,86.25
2022-12-11T09:06:59.217Z,86.25
2022-12-11T09:10:01.369Z,86.60
2022-12-11T09:13:03.282Z,86.49
2022-12-11T09:16:07.306Z,86.35
2022-12-11T09:19:15.074Z,86.17
2022-12-11T09:22:17.377Z,86.28
2022-12-11T09:25:19.332Z,86.55
2022-12-11T09:28:22.764Z,85.82
2022-12-11T09:31:30.649Z,85.44
2022-12-11T09:34:42.724Z,86.07
2022-12-11T09:37:44.858Z,85.03
2022-12-11T09:40:46.993Z,85.55
2022-12-11T09:44:21.236Z,86.09
2022-12-11T09:47:37.201Z,85.43
2022-12-11T09:50:40.508Z,85.79
2022-12-11T09:53:43.012Z,84.75
2022-12-11T09:57:12.073Z,85.13
2022-12-11T10:00:27.115Z,85.18
2022-12-11T10:03:38.309Z,84.46
2022-12-11T10:07:03.951Z,84.69
2022-12-11T10:10:25.260Z,85.02
2022-12-11T10:13:56.679Z,85.38
2022-12-11T10:17:19.973Z,84.48
2022-12-11T10:20:27.152Z,85.44
2022-12-11T10:23:40.933Z,85.13
2022-12-11T10:26:43.943Z,84.18
2022-12-11T10:29:47.658Z,85.15
2022-12-11T10:32:53.536Z,84.70
2022-12-11T10:35:58.600Z,84.49
2022-12-11T10:39:01.453Z,85.29
2022-12-11T10:42:17.999Z,84.33
2022-12-11T10:45:20.086Z,84.80
2022-12-11T10:48:23.463Z,84.90
2022-12-11T10:51:37.046Z,85.18
2022-12-11T10:54:44.317Z,84.15
2022-12-11T10:58:04.322Z,84.15
2022-12-11T11:01:08.865Z,82.90
2022-12-11T11:04:26.190Z,82.88
2022-12-11T11:07:31.353Z,82.79
2022-12-11T11:10:37.130Z,82.89
2022-12-11T11:13:40.633Z,82.10
2022-12-11T11:16:47.812Z,83.48
2022-12-11T11:19:50.438Z,83.38
2022-12-11T11:22:58.907Z,84.21
2022-12-11T11:26:02.585Z,85.24
2022-12-11T11:29:05.052Z,85.64
2022-12-11T11:32:39.823Z,86.53
2022-12-11T11:35:57.074Z,86.02
2022-12-11T11:39:05.240Z,85.97
2022-12-11T11:42:19.770Z,85.23
2022-12-11T11:45:27.142Z,84.65
2022-12-11T11:48:32.316Z,84.63
2022-12-11T11:51:38.257Z,83.74
2022-12-11T11:54:43.766Z,82.81
2022-12-11T11:58:26.054Z,84.31
2022-12-11T12:01:28.571Z,82.54
2022-12-11T12:04:34.618Z,82.07
2022-12-11T12:08:08.683Z,83.21
2022-12-11T12:11:29.552Z,83.02
2022-12-11T12:14:54.972Z,82.83
2022-12-11T12:18:02.955Z,82.71
2022-12-11T12:21:14.799Z,81.97
2022-12-11T12:25:01.573Z,82.24
2022-12-11T12:28:12.773Z,81.95
2022-12-11T12:31:47.244Z,83.10
2022-12-11T12:34:58.967Z,83.26
2022-12-11T12:38:12.307Z,84.12
2022-12-11T12:41:23.269Z,83.80
2022-12-11T12:44:29.536Z,83.41
2022-12-11T12:47:34.428Z,83.28
2022-12-11T12:50:45.802Z,82.63
2022-12-11T12:53:57.925Z,82.72
2022-12-11T12:57:02.313Z,82.22
2022-12-11T13:00:13.076Z,81.79
2022-12-11T13:03:20.510Z,81.97
2022-12-11T13:06:36.496Z,81.02
2022-12-11T13:09:40.172Z,80.88
2022-12-11T13:12:47.321Z,81.27
2022-12-11T13:15:50.009Z,80.79
2022-12-11T13:18:53.192Z,80.26
2022-12-11T13:22:04.587Z,80.90
2022-12-11T13:25:22.972Z,80.05
2022-12-11T13:28:47.112Z,80.27
2022-12-11T13:31:57.848Z,80.67
2022-12-11T13:35:05.257Z,80.44
2022-12-11T13:38:15.620Z,81.38
2022-12-11T13:41:19.143Z,80.63
2022-12-11T13:44:27.494Z,82.30
2022-12-11T13:47:31.151Z,81.47
2022-12-11T13:50:35.169Z,81.17
2022-12-11T13:53:39.705Z,82.55
2022-12-11T13:57:13.327Z,81.60
2022-12-11T14:00:33.163Z,81.61
2022-12-11T14:03:36.018Z,81.76
2022-12-11T14:06:39.227Z,82.34
2022-12-11T14:09:45.869Z,82.14
2022-12-11T14:12:59.449Z,82.63
2022-12-11T14:16:04.044Z,83.34
2022-12-11T14:19:08.348Z,82.98
2022-12-11T14:22:19.634Z,84.22
2022-12-11T14:25:25.615Z,83.21
2022-12-11T14:28:30.990Z,84.08
2022-12-11T14:31:38.519Z,84.11
2022-12-11T14:34:46.723Z,82.85
2022-12-11T14:37:49.325Z,83.74
2022-12-11T14:40:55.673Z,83.91
2022-12-11T14:43:59.871Z,83.10
2022-12-11T14:47:11.049Z,82.25
2022-12-11T14:50:37.344Z,81.89
2022-12-11T14:53:45.513Z,82.13
2022-12-11T14:56:47.921Z,82.69
2022-12-11T14:59:52.000Z,82.56
2022-12-11T15:03:02.375Z,82.52
2022-12-11T15:06:26.011Z,81.44
2022-12-11T15:09:34.221Z,81.83
2022-12-11T15:12:44.727Z,82.12
2022-12-11T15:15:48.223Z,82.28
2022-12-11T15:18:52.169Z,81.39
2022-12-11T15:21:55.795Z,82.07
2022-12-11T15:24:58.986Z,82.73
2022-12-11T15:28:01.811Z,81.83
2022-12-11T15:31:31.290Z,82.37
2022-12-11T15:34:54.747Z,82.92
2022-12-11T15:37:59.485Z,83.76
2022-12-11T15:41:02.235Z,83.45
2022-12-11T15:44:05.105Z,82.69
2022-12-11T15:47:16.235Z,82.80
2022-12-11T15:50:18.590Z,82.84
2022-12-11T15:53:20.531Z,84.21
2022-12-11T15:56:22.858Z,83.31
2022-12-11T15:59:24.817Z,84.61
2022-12-11T16:02:28.509Z,84.42
2022-12-11T16:05:31.529Z,84.35
2022-12-11T16:08:34.147Z,85.63
2022-12-11T16:11:36.144Z,85.86
2022-12-11T16:14:39.427Z,85.56
2022-12-11T16:17:42.120Z,85.76
2022-12-11T16:20:45.838Z,85.39
2022-12-11T16:23:48.380Z,85.98
2022-12-11T16:26:50.605Z,86.15
2022-12-11T16:29:52.651Z,86.26
2022-12-11T16:32:55.664Z,86.99
2022-12-11T16:35:58.224Z,86.47
2022-12-11T16:39:00.782Z,87.05
2022-12-11T16:42:04.371Z,87.14
2022-12-11T16:45:10.659Z,87.50
2022-12-11T16:48:13.339Z,88.70
2022-12-11T16:51:15.996Z,88.54
2022-12-11T16:54:18.739Z,88.61
2022-12-11T16:57:20.906Z,88.57
2022-12-11T17:00:24.220Z,89.13
2022-12-11T17:03:27.816Z,87.79
2022-12-11T17:06:30.543Z,87.73
2022-12-11T17:09:33.315Z,87.94
2022-12-11T17:12:35.580Z,86.87
2022-12-11T17:15:44.536Z,87.69
2022-12-11T17:18:47.417Z,87.52
2022-12-11T17:21:51.821Z,86.76
2022-12-11T17:24:54.642Z,86.56
2022-12-11T17:27:56.841Z,86.06
2022-12-11T17:30:59.348Z,86.98
2022-12-11T17:34:01.619Z,86.55
2022-12-11T17:37:03.641Z,86.24
2022-12-11T17:40:06.944Z,85.32
2022-12-11T17:43:10.524Z,84.47
2022-12-11T17:46:13.559Z,85.62
2022-12-11T17:49:15.930Z,84.37
2022-12-11T17:52:19.230Z,84.87
2022-12-11T17:55:21.497Z,85.96
2022-12-11T17:58:23.775Z,85.44
2022-12-11T18:01:26.742Z,85.45
2022-12-11T18:04:29.166Z,84.68
2022-12-11T18:07:31.922Z,84.28
2022-12-11T18:10:36.760Z,85.00
2022-12-11T18:13:40.103Z,84.48
2022-12-11T18:16:42.517Z,86.21
2022-12-11T18:19:46.296Z,86.75
2022-12-11T18:22:48.944Z,85.98
2022-12-11T18:25:51.232Z,86.19
2022-12-11T18:28:54.302Z,85.65
2022-12-11T18:31:57.152Z,85.77
2022-12-11T18:35:00.226Z,86.11
2022-12-11T18:38:02.544Z,86.22
2022-12-11T18:41:06.607Z,87.10
2022-12-11T18:44:10.083Z,87.14
2022-12-11T18:47:12.585Z,85.85
2022-12-11T18:50:15.665Z,87.06
2022-12-11T18:53:19.511Z,86.23
2022-12-11T18:56:22.578Z,84.91
2022-12-11T18:59:26.191Z,85.99
2022-12-11T19:02:29.008Z,86.02
2022-12-11T19:05:31.989Z,86.46
2022-12-11T19:08:38.542Z,86.28
2022-12-11T19:11:42.838Z,86.41
2022-12-11T19:14:46.468Z,86.18
2022-12-11T19:17:48.949Z,86.59
2022-12-11T19:21:03.073Z,86.17
2022-12-11T19:24:10.071Z,87.90
2022-12-11T19:27:18.618Z,86.97
2022-12-11T19:30:21.395Z,87.85
2022-12-11T19:33:25.703Z,87.92
2022-12-11T19:36:30.684Z,87.98
2022-12-11T19:39:34.056Z,89.10
2022-12-11T19:42:36.497Z,89.86
2022-12-11T19:45:39.401Z,88.72
2022-12-11T19:48:43.076Z,88.47
2022-12-11T19:51:46.104Z,89.24
2022-12-11T19:54:48.689Z,87.70
2022-12-11T19:57:51.520Z,87.74
2022-12-11T20:00:54.872Z,87.30
2022-12-11T20:04:00.132Z,88.13
2022-12-11T20:07:02.884Z,86.55
2022-12-11T20:10:05.635Z,86.82
2022-12-11T20:13:08.312Z,86.91
2022-12-11T20:16:12.339Z,87.23
2022-12-11T20:19:15.142Z,86.94
2022-12-11T20:22:17.241Z,87.46
2022-12-11T20:25:19.647Z,87.38
2022-12-11T20:28:22.681Z,87.68
2022-12-11T20:31:26.423Z,88.43
2022-12-11T20:34:29.437Z,88.82
2022-12-11T20:37:32.353Z,89.28
2022-12-11T20:40:34.890Z,90.24
2022-12-11T20:43:38.265Z,90.58
2022-12-11T20:46:40.581Z,91.43
2022-12-11T20:49:44.053Z,91.79
2022-12-11T20:52:46.828Z,91.29
2022-12-11T20:55:49.690Z,92.40
2022-12-11T20:58:52.027Z,91.99
2022-12-11T21:01:54.732Z,91.54
2022-12-11T21:04:57.765Z,92.87
2022-12-11T21:08:00.194Z,92.48
2022-12-11T21:11:03.123Z,92.66
2022-12-11T21:14:05.539Z,92.41
2022-12-11T21:17:08.371Z,93.11
2022-12-11T21:20:10.885Z,92.66
2022-12-11T21:23:12.853Z,92.67
2022-12-11T21:26:15.239Z,92.82
2022-12-11T21:29:17.481Z,93.18
2022-12-11T21:32:20.319Z,93.67
2022-12-11T21:35:22.509Z,93.04
2022-12-11T21:38:24.997Z,93.55
2022-12-11T21:41:27.963Z,93.71
2022-12-11T23:40:08.964Z,86.92
2022-12-11T23:43:10.803Z,86.06
2022-12-11T23:46:18.826Z,86.47
2022-12-11T23:49:23.486Z,87.74
2022-12-11T23:52:26.805Z,88.33
2022-12-11T23:55:29.070Z,89.12
2022-12-11T23:58:32.230Z,89.98
